Impacts METAR Board
IDs:

KATL - Atlanta/Hartsfield-J, GA, US

Updated at: 1600 UTC 22 Sep 2019
Potential Impact None Slight Moderate High
Time 22/04Z 22/05Z 22/06Z 22/07Z 22/08Z 22/09Z 22/10Z 22/11Z 22/12Z 22/13Z 22/14Z 22/15Z 22/16Z
Temp74 72 70 70 68 66 66 65 64 69 73 78 81
Dewpt56 55 56 55 55 56 56 56 56 58 59 59 58
Altim30.24 30.23 30.22 30.22 30.22 30.21 30.22 30.23 30.24 30.26 30.27 30.27 30.25
VIS10 10 10 10 10 10 10 10 10 10 10 10 10
CIG-- -- -- -- -- -- -- -- -- -- -- -- --
CoverCLRCLRCLRCLRCLRCLRCLRCLRCLRCLRFEWFEWSCT
FltCatVFRVFRVFRVFRVFRVFRVFRVFRVFRVFRVFRVFRVFR
WX--------------------------
WDir01401401501401400000200250260
WSpd0 4 3 3 3 3 0 0 0 0 4 5 6
WGst-- -- -- -- -- -- -- -- -- -- -- -- --
Raw hourly METARs
KATL 220352Z 00000KT 10SM CLR 23/13 A3024 RMK AO2 SLP232 T02330133
KATL 220452Z 14004KT 10SM CLR 22/13 A3023 RMK AO2 SLP227 T02220128 403060178
KATL 220552Z 14003KT 10SM CLR 21/13 A3022 RMK AO2 SLP223 T02110133 10278 20211 58008
KATL 220652Z 15003KT 10SM CLR 21/13 A3022 RMK AO2 SLP225 T02110128
KATL 220752Z 14003KT 10SM CLR 20/13 A3022 RMK AO2 SLP224 T02000128
KATL 220852Z 14003KT 10SM CLR 19/13 A3021 RMK AO2 SLP221 T01890133 58001
KATL 220952Z 00000KT 10SM CLR 19/13 A3022 RMK AO2 SLP225 T01890133
KATL 221052Z 00000KT 10SM CLR 18/13 A3023 RMK AO2 SLP229 T01830133
KATL 221152Z 00000KT 10SM CLR 18/13 A3024 RMK AO2 SLP231 T01780133 10211 20178 51007
KATL 221252Z 00000KT 10SM CLR 21/14 A3026 RMK AO2 SLP238 T02060144
KATL 221352Z 20004KT 10SM FEW250 23/15 A3027 RMK AO2 SLP243 T02280150
KATL 221452Z 25005KT 10SM FEW250 26/15 A3027 RMK AO2 SLP239 T02560150 50010
KATL 221552Z 26006KT 10SM FEW045 SCT250 27/14 A3025 RMK AO2 SLP234 T02720144



Page loaded:  16:09 UTC  |   09:09 AM Pacific  |   10:09 AM Mountain  |   11:09 AM Central  |   12:09 PM Eastern

 

ADVISORIES

FORECASTS

FORECASTS

OBSERVATIONS

USER TOOLS

ABOUT US